Time;durP1;ratioP1;P1;durP2;ratioP2;P2;SDS_P1;SDS_P2;PMS_P1;PMS_P2;Temp;Humidity;BMP_temperature;BMP_pressure;BME280_temperature;BME280_humidity;BME280_pressure;Samples;Min_cycle;Max_cycle;Signal;HPM_P1;HPM_P2
2022/04/04 00:01:16;;;;;;;3.70;2.60;;;;;;;2.94;43.65;94011.38;4925749;28;20043;-77
2022/04/04 00:03:42;;;;;;;4.10;2.95;;;;;;;2.99;44.07;94014.03;4928892;28;20475;-76
2022/04/04 00:06:07;;;;;;;3.53;2.63;;;;;;;3.05;44.15;94026.13;4923923;28;20042;-77
2022/04/04 00:08:33;;;;;;;5.38;3.35;;;;;;;2.84;44.37;93993.00;4934209;28;20054;-77
2022/04/04 00:10:59;;;;;;;2.58;2.35;;;;;;;2.74;44.06;93978.03;4919264;29;20047;-76
2022/04/04 00:13:27;;;;;;;3.28;2.47;;;;;;;2.69;44.07;93985.09;4929494;28;20043;-77
2022/04/04 00:15:53;;;;;;;3.03;2.63;;;;;;;2.65;44.21;93990.06;4926039;28;20618;-77
2022/04/04 00:18:18;;;;;;;3.70;2.53;;;;;;;2.82;44.24;93997.72;4931492;28;20074;-75
2022/04/04 00:20:44;;;;;;;3.53;2.30;;;;;;;2.95;44.13;93999.84;4926071;28;20131;-76
2022/04/04 00:23:12;;;;;;;2.33;2.03;;;;;;;3.11;44.00;94025.09;4924434;28;20577;-77
2022/04/04 00:25:45;;;;;;;3.22;2.22;;;;;;;3.24;44.29;94029.81;4929931;28;20063;-77
2022/04/04 00:28:12;;;;;;;2.92;2.00;;;;;;;3.30;44.00;94013.00;4942511;28;20064;-77
2022/04/04 00:30:38;;;;;;;4.45;2.78;;;;;;;3.29;43.85;94037.72;4934762;28;20436;-76
2022/04/04 00:33:04;;;;;;;3.35;2.50;;;;;;;3.24;43.34;93997.50;4945102;28;20031;-76
2022/04/04 00:35:30;;;;;;;3.42;2.58;;;;;;;3.41;43.35;94029.59;4927999;28;20085;-77
2022/04/04 00:37:58;;;;;;;3.38;3.03;;;;;;;3.35;43.22;94031.41;4926904;28;20565;-76
2022/04/04 00:40:23;;;;;;;3.90;2.40;;;;;;;3.37;43.52;94028.53;4929329;28;20150;-77
2022/04/04 00:42:49;;;;;;;4.72;2.80;;;;;;;2.94;43.27;93971.97;4927086;28;20023;-77
2022/04/04 00:45:14;;;;;;;3.72;2.65;;;;;;;3.16;43.75;94017.22;4923501;28;20039;-76
2022/04/04 00:47:40;;;;;;;4.85;2.67;;;;;;;3.31;44.07;94035.63;4933818;28;20075;-77
2022/04/04 00:50:06;;;;;;;6.07;2.60;;;;;;;3.32;43.81;94029.31;4924373;28;20540;-77
2022/04/04 00:52:32;;;;;;;2.88;2.35;;;;;;;3.22;44.02;94025.91;4929226;28;20146;-76
2022/04/04 00:54:57;;;;;;;3.63;2.45;;;;;;;3.33;43.25;94027.50;4928369;28;20498;-76
2022/04/04 00:57:23;;;;;;;4.20;2.60;;;;;;;3.12;43.11;94004.84;4929872;28;20185;-77
2022/04/04 00:59:50;;;;;;;3.28;2.38;;;;;;;3.33;43.04;94036.13;4929099;28;20027;-76
2022/04/04 01:02:16;;;;;;;3.33;2.45;;;;;;;3.16;43.19;94000.66;4928654;28;20047;-76
2022/04/04 01:04:42;;;;;;;4.35;2.25;;;;;;;3.50;43.17;94027.22;4929695;28;20285;-77
2022/04/04 01:07:07;;;;;;;2.58;2.33;;;;;;;3.58;42.80;94037.97;4928620;28;20055;-76
2022/04/04 01:09:33;;;;;;;3.03;2.60;;;;;;;3.66;43.18;94031.41;4929577;28;20458;-76
2022/04/04 01:12:10;;;;;;;4.35;2.60;;;;;;;3.87;42.79;94030.31;4926063;29;20035;-77
2022/04/04 01:14:38;;;;;;;4.32;2.60;;;;;;;3.84;42.86;94023.75;4941355;28;20074;-76
2022/04/04 01:17:07;;;;;;;4.47;2.67;;;;;;;3.90;42.41;94011.41;4923128;28;20041;-76
2022/04/04 01:19:33;;;;;;;4.38;2.47;;;;;;;3.81;42.28;93987.47;4925142;28;20102;-77
2022/04/04 01:21:58;;;;;;;3.72;2.28;;;;;;;3.83;42.35;93984.56;4928478;28;20047;-75
2022/04/04 01:24:24;;;;;;;4.25;2.63;;;;;;;4.08;42.50;94023.19;4922503;29;20028;-77
2022/04/04 01:26:52;;;;;;;4.25;2.85;;;;;;;3.98;42.58;94021.38;4928177;28;20047;-76
2022/04/04 01:29:20;;;;;;;4.47;3.00;;;;;;;3.99;42.85;94016.91;4923972;28;20078;-76
2022/04/04 01:31:46;;;;;;;5.10;2.78;;;;;;;3.83;43.21;93974.03;4925925;28;20035;-76
2022/04/04 01:34:12;;;;;;;5.10;3.00;;;;;;;3.85;43.61;93987.72;4922638;28;20071;-75
2022/04/04 01:36:37;;;;;;;3.65;2.58;;;;;;;4.14;43.49;94008.97;4916568;28;20118;-76
2022/04/04 01:39:03;;;;;;;4.53;2.95;;;;;;;4.05;42.90;94008.72;4932144;28;20499;-76
2022/04/04 01:41:28;;;;;;;5.05;2.88;;;;;;;3.88;43.47;93994.28;4925604;28;20585;-77
2022/04/04 01:43:54;;;;;;;3.85;3.00;;;;;;;3.95;43.29;94018.50;4918985;29;20135;-75
2022/04/04 01:46:26;;;;;;;4.32;3.25;;;;;;;4.05;43.41;94024.53;4929584;28;20082;-76
2022/04/04 01:48:53;;;;;;;6.15;3.20;;;;;;;3.93;43.44;94004.78;4926082;28;20048;-76
2022/04/04 01:51:19;;;;;;;4.97;3.03;;;;;;;3.95;43.28;93992.16;4924677;28;20703;-75
2022/04/04 01:53:45;;;;;;;4.50;2.63;;;;;;;4.07;43.08;93996.06;4932150;28;20502;-76
2022/04/04 01:56:11;;;;;;;3.38;2.85;;;;;;;4.23;42.99;94007.34;4930989;28;20067;-76
2022/04/04 01:58:37;;;;;;;4.93;2.63;;;;;;;4.36;42.81;94027.88;4921618;28;20043;-76
2022/04/04 02:01:10;;;;;;;3.30;2.80;;;;;;;4.18;42.29;94021.31;4926201;28;21599;-76
2022/04/04 02:03:38;;;;;;;3.42;2.25;;;;;;;4.11;42.04;94018.16;4931860;28;20501;-76
2022/04/04 02:06:04;;;;;;;4.97;2.67;;;;;;;4.05;42.48;94019.25;4916268;28;20019;-76
2022/04/04 02:08:33;;;;;;;5.50;3.50;;;;;;;4.04;42.40;94006.34;4927085;28;20043;-78
2022/04/04 02:11:00;;;;;;;4.00;2.80;;;;;;;4.05;42.05;94018.47;4927995;28;20035;-76
2022/04/04 02:13:27;;;;;;;4.07;2.70;;;;;;;4.10;42.38;94013.97;4924000;28;20184;-76
2022/04/04 02:15:54;;;;;;;4.10;3.63;;;;;;;4.13;42.28;94005.53;4920888;28;20039;-77
2022/04/04 02:18:19;;;;;;;5.03;2.95;;;;;;;3.93;43.07;94008.22;4929196;29;20329;-76
2022/04/04 02:20:46;;;;;;;5.72;2.80;;;;;;;4.00;42.27;93987.69;4916354;28;20047;-77
2022/04/04 02:23:11;;;;;;;4.50;2.72;;;;;;;3.99;42.62;93991.38;4930384;28;20078;-76
2022/04/04 02:25:37;;;;;;;5.70;3.35;;;;;;;3.83;42.53;93972.19;4928935;28;20119;-77
2022/04/04 02:28:06;;;;;;;4.03;2.55;;;;;;;3.92;42.67;93995.31;4930326;28;20379;-75
2022/04/04 02:30:32;;;;;;;5.22;3.20;;;;;;;3.71;42.83;93976.19;4935262;28;20426;-76
2022/04/04 02:32:57;;;;;;;3.88;2.97;;;;;;;3.87;42.74;94011.91;4923217;29;20058;-76
2022/04/04 02:35:23;;;;;;;7.50;4.40;;;;;;;3.69;42.91;94000.09;4933324;28;20066;-75
2022/04/04 02:37:48;;;;;;;5.65;3.58;;;;;;;3.71;42.92;93999.84;4924726;28;20096;-77
2022/04/04 02:40:14;;;;;;;12.65;4.18;;;;;;;3.65;43.07;93998.28;4929420;28;20031;-76
2022/04/04 02:42:39;;;;;;;5.95;4.47;;;;;;;3.44;43.17;93965.94;4932919;28;20023;-75
2022/04/04 02:45:05;;;;;;;6.28;4.18;;;;;;;3.56;43.18;93999.88;4925166;29;20039;-77
2022/04/04 02:47:31;;;;;;;7.22;3.80;;;;;;;3.35;43.31;93968.31;4925944;28;20498;-76
2022/04/04 02:49:56;;;;;;;6.90;4.47;;;;;;;3.28;43.95;93940.75;4934318;28;20039;-76
2022/04/04 02:52:22;;;;;;;6.55;4.03;;;;;;;3.59;43.62;93967.75;4922966;28;20047;-76
2022/04/04 02:54:47;;;;;;;4.55;3.75;;;;;;;3.88;43.25;93991.66;4945106;28;20035;-76
2022/04/04 02:57:14;;;;;;;11.13;4.50;;;;;;;3.97;42.97;93992.69;4928436;28;20110;-76
2022/04/04 02:59:39;;;;;;;6.13;3.90;;;;;;;3.92;42.86;93988.22;4931334;28;20040;-76
2022/04/04 03:02:05;;;;;;;6.28;4.22;;;;;;;3.87;43.00;93988.22;4928093;28;20102;-76
2022/04/04 03:04:30;;;;;;;6.18;4.47;;;;;;;3.87;43.09;93972.44;4922384;28;20410;-75
2022/04/04 03:06:56;;;;;;;8.98;5.28;;;;;;;3.63;43.16;93971.44;4927470;28;20513;-75
2022/04/04 03:09:21;;;;;;;6.65;4.93;;;;;;;2.95;43.24;93900.78;4931484;28;20526;-76
2022/04/04 03:11:48;;;;;;;7.10;4.68;;;;;;;3.17;43.68;93984.63;4927954;28;20134;-76
2022/04/04 03:14:14;;;;;;;7.40;4.68;;;;;;;3.14;44.31;93964.09;4923626;28;20525;-75
2022/04/04 03:16:39;;;;;;;9.95;4.88;;;;;;;3.06;44.47;93974.34;4929389;28;20134;-75
2022/04/04 03:19:05;;;;;;;6.78;4.30;;;;;;;3.00;44.62;93964.88;4939907;28;20042;-75
2022/04/04 03:21:30;;;;;;;7.70;5.65;;;;;;;3.10;44.68;93980.66;4929634;28;20394;-76
2022/04/04 03:23:56;;;;;;;5.47;4.57;;;;;;;3.16;45.00;94000.66;4921221;28;21239;-75
2022/04/04 03:26:22;;;;;;;8.20;4.63;;;;;;;3.18;44.78;93980.16;4944305;28;20396;-76
2022/04/04 03:28:50;;;;;;;10.02;4.50;;;;;;;3.45;44.59;93998.28;4923412;28;20059;-75
2022/04/04 03:31:16;;;;;;;5.68;4.43;;;;;;;3.09;44.61;93945.72;4925564;28;20044;-75
2022/04/04 03:33:43;;;;;;;6.55;4.72;;;;;;;3.56;44.49;94011.19;4932347;28;20631;-76
2022/04/04 03:36:10;;;;;;;8.80;5.07;;;;;;;3.72;44.26;94022.47;4926153;28;20105;-75
2022/04/04 03:38:35;;;;;;;6.07;4.43;;;;;;;3.73;44.28;94005.63;4923292;28;20123;-76
2022/04/04 03:41:01;;;;;;;7.10;4.97;;;;;;;3.92;44.04;94017.16;4926830;28;20500;-75
2022/04/04 03:43:26;;;;;;;6.03;3.90;;;;;;;3.83;43.98;94000.34;4925905;28;20028;-75
2022/04/04 03:45:52;;;;;;;8.60;5.43;;;;;;;3.95;43.65;94008.75;4928548;28;20035;-77
2022/04/04 03:48:17;;;;;;;8.90;4.57;;;;;;;3.97;43.67;94022.41;4934738;29;20091;-77
2022/04/04 03:50:45;;;;;;;6.03;4.47;;;;;;;3.98;43.79;94026.63;4928419;28;20039;-77
2022/04/04 03:53:11;;;;;;;7.03;4.38;;;;;;;3.87;43.30;94000.63;4927332;28;20046;-78
2022/04/04 03:55:39;;;;;;;6.50;4.47;;;;;;;3.99;43.22;94028.22;4924945;28;20067;-76
2022/04/04 03:58:08;;;;;;;7.03;4.30;;;;;;;3.80;43.80;94051.66;4934276;28;20031;-78
2022/04/04 04:00:34;;;;;;;8.93;4.50;;;;;;;3.82;43.96;94040.84;4921153;28;20059;-76
2022/04/04 04:02:59;;;;;;;7.63;4.28;;;;;;;3.88;43.93;94034.53;4927506;29;20102;-78
2022/04/04 04:05:24;;;;;;;6.65;3.70;;;;;;;3.86;43.92;94034.03;4928820;28;20505;-78
2022/04/04 04:07:51;;;;;;;6.53;4.80;;;;;;;3.87;43.60;94038.22;4923304;28;20047;-77
2022/04/04 04:10:16;;;;;;;10.98;5.65;;;;;;;3.97;43.78;94046.09;4926945;28;20063;-77
2022/04/04 04:12:43;;;;;;;6.70;4.68;;;;;;;4.05;43.48;94053.47;4930831;28;20557;-77
2022/04/04 04:15:14;;;;;;;8.40;4.88;;;;;;;4.13;43.25;94063.44;4927143;29;20023;-77
2022/04/04 04:17:39;;;;;;;7.75;4.68;;;;;;;4.14;42.72;94064.25;4925148;28;20150;-77
2022/04/04 04:20:22;;;;;;;7.15;4.82;;;;;;;4.11;42.90;94060.28;4931773;28;20213;-77
2022/04/04 04:22:59;;;;;;;9.70;5.75;;;;;;;3.99;42.65;94064.25;4929314;28;20150;-77
2022/04/04 04:25:30;;;;;;;8.57;5.68;;;;;;;3.95;42.59;94056.13;4919193;28;20688;-77
2022/04/04 04:27:59;;;;;;;7.10;5.50;;;;;;;3.87;42.45;94051.38;4926934;28;20460;-77
2022/04/04 04:30:25;;;;;;;6.97;5.28;;;;;;;3.69;42.36;94062.44;4925686;28;20625;-77
2022/04/04 04:32:52;;;;;;;7.55;4.88;;;;;;;3.64;42.30;94055.34;4926569;28;20039;-76
2022/04/04 04:35:19;;;;;;;10.23;5.13;;;;;;;3.43;42.43;94063.50;4923933;28;20047;-78
2022/04/04 04:37:45;;;;;;;6.45;4.97;;;;;;;3.47;42.77;94088.22;4932680;28;20039;-77
2022/04/04 04:40:11;;;;;;;7.50;5.68;;;;;;;3.47;42.88;94085.59;4927896;28;20087;-77
2022/04/04 04:42:37;;;;;;;10.70;6.43;;;;;;;3.45;42.63;94087.69;4930740;28;20019;-77
2022/04/04 04:45:04;;;;;;;6.03;4.70;;;;;;;3.00;43.35;94055.03;4919263;28;20047;-77
2022/04/04 04:47:30;;;;;;;8.95;5.55;;;;;;;3.09;43.69;94095.50;4945093;28;20582;-77
2022/04/04 04:49:56;;;;;;;8.90;5.35;;;;;;;3.16;43.93;94085.53;4931004;28;20384;-77
2022/04/04 04:52:22;;;;;;;8.35;5.38;;;;;;;3.10;43.62;94106.81;4926652;28;20071;-77
2022/04/04 04:54:47;;;;;;;9.15;5.55;;;;;;;3.08;43.60;94093.16;4931487;28;20093;-77
2022/04/04 04:57:13;;;;;;;10.35;6.25;;;;;;;3.13;43.78;94107.09;4930391;28;20070;-76
2022/04/04 04:59:38;;;;;;;8.80;5.57;;;;;;;2.98;44.28;94083.41;4928926;28;20050;-77
2022/04/04 05:02:04;;;;;;;10.95;5.80;;;;;;;2.83;44.68;94096.50;4924439;28;21390;-77
2022/04/04 05:04:30;;;;;;;8.65;5.82;;;;;;;2.98;44.99;94086.03;4926491;28;20481;-77
2022/04/04 05:06:55;;;;;;;10.88;6.15;;;;;;;3.05;44.48;94104.16;4927868;28;20063;-76
2022/04/04 05:09:21;;;;;;;9.73;5.35;;;;;;;3.00;44.94;94091.81;4925951;28;20063;-76
2022/04/04 05:11:47;;;;;;;8.85;6.82;;;;;;;3.21;44.72;94098.69;4923981;28;20034;-77
2022/04/04 05:14:16;;;;;;;8.73;6.47;;;;;;;3.07;44.80;94073.97;4951242;28;20538;-77
2022/04/04 05:16:46;;;;;;;7.85;5.30;;;;;;;2.83;44.70;94071.00;4923704;28;20062;-77
2022/04/04 05:19:13;;;;;;;12.05;5.63;;;;;;;2.91;44.66;94074.97;4925875;28;20473;-77
2022/04/04 05:21:42;;;;;;;11.25;5.97;;;;;;;2.97;44.85;94087.88;4930803;28;20046;-77
2022/04/04 05:24:08;;;;;;;8.05;5.53;;;;;;;3.00;45.28;94112.81;4925464;29;20099;-78
2022/04/04 05:26:34;;;;;;;9.27;6.25;;;;;;;2.81;45.49;94101.19;4929167;28;20036;-77
2022/04/04 05:29:00;;;;;;;13.82;6.65;;;;;;;2.98;45.96;94107.06;4928079;28;20040;-77
2022/04/04 05:31:26;;;;;;;11.38;7.07;;;;;;;3.01;46.51;94126.75;4924065;28;20039;-77
2022/04/04 05:33:51;;;;;;;8.02;5.65;;;;;;;3.04;46.10;94123.63;4927129;28;20449;-77
2022/04/04 05:36:17;;;;;;;9.98;6.65;;;;;;;2.87;46.24;94129.06;4930980;28;20023;-76
2022/04/04 05:38:42;;;;;;;10.73;6.95;;;;;;;2.59;46.74;94100.59;4926195;28;20515;-77
2022/04/04 05:41:09;;;;;;;11.45;6.63;;;;;;;2.77;47.00;94134.28;4927258;28;20882;-77
2022/04/04 05:43:34;;;;;;;12.63;6.93;;;;;;;2.93;46.74;94139.34;4932494;28;20652;-77
2022/04/04 05:46:00;;;;;;;12.35;6.25;;;;;;;2.77;47.06;94118.53;4928639;28;20046;-77
2022/04/04 05:48:30;;;;;;;9.85;6.05;;;;;;;2.85;47.48;94141.66;4924529;29;20034;-77
2022/04/04 05:50:56;;;;;;;9.32;6.03;;;;;;;2.59;47.54;94117.16;4922674;28;20086;-77
2022/04/04 05:53:22;;;;;;;10.35;5.70;;;;;;;2.78;47.60;94136.66;4928356;28;20040;-77
2022/04/04 05:55:47;;;;;;;7.38;5.50;;;;;;;2.84;47.61;94119.09;4936602;28;20048;-77
2022/04/04 05:58:18;;;;;;;14.65;6.40;;;;;;;3.21;47.24;94161.00;4936701;28;20043;-77
2022/04/04 06:00:43;;;;;;;8.95;5.82;;;;;;;3.22;47.09;94157.31;4948306;28;20476;-77
2022/04/04 06:03:09;;;;;;;10.95;6.10;;;;;;;3.17;47.17;94163.34;4929853;29;20024;-77
2022/04/04 06:05:35;;;;;;;9.48;6.25;;;;;;;3.19;47.53;94147.31;4932157;28;20071;-77
2022/04/04 06:08:01;;;;;;;8.05;5.57;;;;;;;3.15;46.86;94122.59;4927973;28;20042;-77
2022/04/04 06:10:27;;;;;;;5.72;4.80;;;;;;;2.88;46.92;94093.88;4930008;28;20645;-77
2022/04/04 06:12:52;;;;;;;8.02;5.50;;;;;;;3.36;47.06;94156.56;4930498;28;20126;-77
2022/04/04 06:15:17;;;;;;;9.45;5.57;;;;;;;3.57;47.26;94153.97;4928461;29;20023;-77
2022/04/04 06:17:44;;;;;;;9.05;5.70;;;;;;;3.57;47.18;94138.19;4930619;28;20410;-77
2022/04/04 06:20:10;;;;;;;11.02;6.13;;;;;;;3.91;47.01;94152.44;4928511;28;20422;-77
2022/04/04 06:22:37;;;;;;;11.93;7.20;;;;;;;3.79;47.50;94142.16;4926933;28;20423;-78
2022/04/04 06:25:04;;;;;;;11.35;7.40;;;;;;;3.44;46.95;94141.31;4930649;28;20035;-77
2022/04/04 06:27:30;;;;;;;8.68;5.65;;;;;;;3.36;46.86;94090.84;4924929;29;20565;-78
2022/04/04 06:29:56;;;;;;;16.38;7.65;;;;;;;3.34;47.22;94129.72;4928161;28;20107;-77
2022/04/04 06:32:24;;;;;;;11.15;7.68;;;;;;;3.72;46.81;94128.47;4916113;28;20031;-77
2022/04/04 06:34:49;;;;;;;10.45;7.43;;;;;;;2.82;48.56;94147.44;4919283;28;20542;-76
2022/04/04 06:37:15;;;;;;;9.00;6.07;;;;;;;2.99;49.27;94149.88;4917709;28;20036;-77
2022/04/04 06:39:40;;;;;;;7.47;5.55;;;;;;;3.09;48.21;94121.78;4928284;28;20229;-77
2022/04/04 06:42:06;;;;;;;8.57;5.60;;;;;;;3.53;48.14;94152.91;4928062;29;20030;-78
2022/04/04 06:44:31;;;;;;;10.05;6.25;;;;;;;3.18;47.80;94120.25;4955664;28;20032;-77
2022/04/04 06:46:57;;;;;;;12.27;7.57;;;;;;;3.17;47.76;94150.22;4926953;28;20097;-78
2022/04/04 06:49:22;;;;;;;10.77;6.70;;;;;;;2.63;49.36;94139.22;4932376;28;20573;-75
2022/04/04 06:51:51;;;;;;;13.63;6.55;;;;;;;2.83;49.65;94154.28;4921592;28;20032;-78
2022/04/04 06:54:18;;;;;;;10.35;6.45;;;;;;;3.13;48.04;94161.50;4924307;29;20027;-78
2022/04/04 06:56:45;;;;;;;10.65;6.85;;;;;;;2.84;48.98;94142.72;4923852;28;20030;-75
2022/04/04 06:59:11;;;;;;;10.13;6.57;;;;;;;3.02;49.17;94163.28;4923509;28;20078;-78
2022/04/04 07:01:37;;;;;;;11.10;6.97;;;;;;;3.55;47.58;94145.56;4928668;28;20135;-77
2022/04/04 07:04:03;;;;;;;9.50;6.40;;;;;;;3.98;46.55;94145.06;4926367;28;20043;-78
2022/04/04 07:06:28;;;;;;;10.93;6.70;;;;;;;3.98;45.65;94160.84;4927194;28;20492;-77
2022/04/04 07:08:54;;;;;;;10.48;6.00;;;;;;;4.15;45.86;94137.69;4927443;28;20036;-78
2022/04/04 07:11:19;;;;;;;13.48;7.13;;;;;;;3.58;47.54;94160.81;4922009;28;20031;-77
2022/04/04 07:13:48;;;;;;;10.68;6.30;;;;;;;4.01;46.73;94162.19;4920422;28;20450;-78
2022/04/04 07:16:13;;;;;;;11.10;6.95;;;;;;;3.75;47.34;94166.63;4926412;28;20048;-79
2022/04/04 07:18:39;;;;;;;7.57;5.72;;;;;;;3.93;47.63;94158.22;4923444;28;20065;-77
2022/04/04 07:21:05;;;;;;;15.77;6.30;;;;;;;3.62;47.74;94151.38;4927999;28;20046;-78
2022/04/04 07:23:32;;;;;;;12.00;6.53;;;;;;;4.43;46.80;94167.16;4923401;28;20078;-77
2022/04/04 07:25:58;;;;;;;11.18;6.60;;;;;;;4.51;45.48;94148.19;4926166;28;20588;-77
2022/04/04 07:28:24;;;;;;;10.00;5.65;;;;;;;4.57;45.55;94168.19;4929108;28;20031;-78
2022/04/04 07:30:52;;;;;;;9.50;5.97;;;;;;;3.80;46.13;94145.59;4919169;28;20114;-77
2022/04/04 07:33:18;;;;;;;8.32;6.22;;;;;;;3.88;47.49;94171.38;4943057;28;20478;-77
2022/04/04 07:35:45;;;;;;;10.60;6.32;;;;;;;4.06;47.09;94172.72;4927094;28;20553;-76
2022/04/04 07:38:11;;;;;;;11.15;6.10;;;;;;;4.62;46.43;94160.28;4921863;28;20121;-77
2022/04/04 07:40:38;;;;;;;8.88;6.18;;;;;;;4.40;46.19;94168.50;4928146;28;20035;-77
2022/04/04 07:43:04;;;;;;;13.50;7.63;;;;;;;5.13;45.63;94167.00;4925146;28;20043;-77
2022/04/04 07:45:31;;;;;;;10.43;6.40;;;;;;;5.32;44.59;94138.16;4925654;29;20035;-77
2022/04/04 07:47:57;;;;;;;16.25;6.65;;;;;;;5.29;44.83;94124.72;4923730;28;20095;-77
2022/04/04 07:50:23;;;;;;;17.13;8.27;;;;;;;5.44;43.88;94172.91;4925811;28;20054;-78
2022/04/04 07:52:49;;;;;;;8.88;5.78;;;;;;;5.50;44.84;94155.19;4927382;28;20520;-77
2022/04/04 07:55:15;;;;;;;10.85;7.07;;;;;;;5.36;44.63;94180.59;4921133;28;20039;-77
2022/04/04 07:57:41;;;;;;;10.80;7.28;;;;;;;5.27;44.09;94158.50;4929312;28;20480;-77
2022/04/04 08:00:14;;;;;;;8.75;5.80;;;;;;;5.31;43.82;94175.34;4924491;28;20031;-77
2022/04/04 08:02:40;;;;;;;7.68;5.72;;;;;;;5.22;43.62;94155.88;4923467;28;20042;-77
2022/04/04 08:05:07;;;;;;;11.35;6.47;;;;;;;5.04;44.51;94136.94;4925079;28;20324;-77
2022/04/04 08:07:32;;;;;;;12.65;7.25;;;;;;;5.13;44.41;94161.72;4924170;28;20115;-77
2022/04/04 08:09:58;;;;;;;9.82;6.63;;;;;;;4.34;45.42;94163.50;4927337;28;20213;-78
2022/04/04 08:12:28;;;;;;;9.35;6.38;;;;;;;4.78;45.18;94184.75;4922688;29;20035;-77
2022/04/04 08:14:54;;;;;;;11.70;6.60;;;;;;;4.96;44.93;94155.97;4923928;28;20491;-77
2022/04/04 08:17:20;;;;;;;10.35;7.03;;;;;;;4.76;46.96;94163.94;4920303;28;20458;-78
2022/04/04 08:19:46;;;;;;;8.35;6.15;;;;;;;4.67;46.01;94150.53;4924426;28;20050;-77
2022/04/04 08:22:11;;;;;;;11.90;6.95;;;;;;;4.79;45.69;94157.34;4933276;28;20574;-78
2022/04/04 08:24:37;;;;;;;11.98;7.82;;;;;;;4.76;45.11;94165.78;4917417;28;20860;-77
2022/04/04 08:27:03;;;;;;;12.93;7.00;;;;;;;5.32;45.11;94166.38;4928578;29;20585;-76
2022/04/04 08:29:28;;;;;;;12.30;6.40;;;;;;;5.80;44.06;94165.56;4919610;28;20042;-77
2022/04/04 08:31:54;;;;;;;12.95;7.53;;;;;;;5.82;43.35;94158.16;4927879;28;20027;-78
2022/04/04 08:34:20;;;;;;;11.55;7.05;;;;;;;5.46;43.93;94133.06;4914168;28;20067;-77
2022/04/04 08:36:46;;;;;;;13.43;7.47;;;;;;;5.42;43.93;94121.50;4920465;28;20019;-77
2022/04/04 08:39:11;;;;;;;10.77;6.50;;;;;;;4.88;44.14;94122.28;4925130;28;20619;-77
2022/04/04 08:41:38;;;;;;;12.00;7.18;;;;;;;4.97;44.52;94147.00;4918485;28;20146;-76
2022/04/04 08:44:05;;;;;;;13.10;7.25;;;;;;;4.82;45.10;94147.06;4922942;28;20062;-78
2022/04/04 08:46:33;;;;;;;12.32;7.88;;;;;;;4.91;45.03;94140.19;4920777;28;20133;-75
2022/04/04 08:48:59;;;;;;;13.60;7.90;;;;;;;4.58;44.78;94107.34;4923906;28;20350;-76
2022/04/04 08:51:26;;;;;;;12.98;7.43;;;;;;;4.90;45.05;94121.97;4921689;29;20035;-76
2022/04/04 08:53:52;;;;;;;12.27;8.15;;;;;;;4.91;44.57;94071.66;4926693;28;20383;-76
2022/04/04 08:56:18;;;;;;;13.88;7.38;;;;;;;5.75;44.49;94128.66;4925890;28;20060;-76
2022/04/04 08:58:43;;;;;;;15.80;7.45;;;;;;;5.38;43.76;94123.84;4920190;28;20063;-76
2022/04/04 09:01:09;;;;;;;11.55;7.22;;;;;;;5.51;43.81;94125.91;4918176;28;20063;-76
2022/04/04 09:03:34;;;;;;;11.77;7.72;;;;;;;5.61;43.67;94114.50;4920766;28;20027;-76
2022/04/04 09:06:03;;;;;;;12.05;6.82;;;;;;;6.20;43.22;94092.41;4929204;28;20027;-77
2022/04/04 09:08:30;;;;;;;12.50;7.82;;;;;;;6.37;42.87;94112.06;4907226;28;20036;-76
2022/04/04 09:11:00;;;;;;;10.38;7.90;;;;;;;5.43;44.47;94115.16;4918915;28;20043;-76
2022/04/04 09:13:27;;;;;;;11.13;7.20;;;;;;;5.52;43.59;94100.31;4925500;28;20040;-77
2022/04/04 09:15:57;;;;;;;12.25;7.22;;;;;;;6.05;43.74;94108.38;4935721;28;20063;-76
2022/04/04 09:18:42;;;;;;;12.93;7.32;;;;;;;5.90;43.28;94104.78;4925430;29;20051;-76
2022/04/04 09:21:29;;;;;;;11.32;6.85;;;;;;;5.68;43.94;94099.13;4922779;28;20090;-76
2022/04/04 09:24:01;;;;;;;12.07;7.22;;;;;;;6.19;43.87;94098.75;4919674;28;20432;-76
2022/04/04 09:26:31;;;;;;;12.60;7.20;;;;;;;6.12;43.27;94093.75;4923676;28;20158;-76
2022/04/04 09:29:05;;;;;;;11.30;7.30;;;;;;;6.53;43.36;94088.91;4923416;28;20050;-76
2022/04/04 09:31:31;;;;;;;12.52;8.15;;;;;;;7.08;43.22;94063.69;4919970;28;20027;-76
2022/04/04 09:34:05;;;;;;;15.45;7.10;;;;;;;7.14;41.60;94067.81;4914345;28;20110;-76
2022/04/04 09:36:32;;;;;;;15.73;7.82;;;;;;;7.35;41.85;94076.25;4925998;28;20127;-75
2022/04/04 09:39:04;;;;;;;13.00;7.25;;;;;;;6.57;42.36;94047.63;4931181;28;20032;-76
2022/04/04 09:41:30;;;;;;;13.85;7.95;;;;;;;7.24;41.42;94072.16;4924069;28;20428;-76
2022/04/04 09:44:00;;;;;;;14.30;7.28;;;;;;;7.16;41.52;94065.69;4919180;28;20066;-76
2022/04/04 09:46:36;;;;;;;13.85;8.13;;;;;;;7.09;40.86;94059.19;4938398;28;20048;-76
2022/04/04 09:49:13;;;;;;;10.40;7.00;;;;;;;6.93;40.95;94061.22;4923232;28;20090;-76
2022/04/04 09:51:50;;;;;;;13.32;7.70;;;;;;;6.54;41.42;94053.50;4920020;28;20426;-77
2022/04/04 09:54:20;;;;;;;13.85;8.00;;;;;;;7.04;41.56;94067.97;4923863;28;20023;-77
2022/04/04 09:56:47;;;;;;;11.27;7.07;;;;;;;7.35;40.76;94055.09;4921844;28;20040;-76
2022/04/04 09:59:17;;;;;;;13.98;7.25;;;;;;;7.62;40.82;94063.19;4914855;28;20106;-76
2022/04/04 10:01:44;;;;;;;13.80;6.80;;;;;;;7.54;41.02;94045.28;4917041;28;20038;-76
2022/04/04 10:04:12;;;;;;;11.10;7.28;;;;;;;7.02;40.71;94003.19;4915705;28;20531;-76
2022/04/04 10:06:39;;;;;;;13.02;7.38;;;;;;;7.32;41.49;94031.06;4921289;28;20537;-76
2022/04/04 10:09:05;;;;;;;11.73;7.63;;;;;;;6.51;42.32;94024.97;4920753;28;20027;-76
2022/04/04 10:11:34;;;;;;;12.82;7.90;;;;;;;6.03;43.27;94032.06;4914711;28;20036;-77
2022/04/04 10:14:00;;;;;;;16.50;7.60;;;;;;;6.24;43.02;94020.28;4918512;28;20609;-76
2022/04/04 10:16:25;;;;;;;12.45;7.32;;;;;;;6.27;42.25;94011.78;4922501;28;20042;-77
2022/04/04 10:18:54;;;;;;;11.85;7.90;;;;;;;7.16;42.31;94019.91;4922849;28;20042;-76
2022/04/04 10:21:19;;;;;;;13.05;7.10;;;;;;;7.08;41.63;93988.84;4923722;28;20388;-76
2022/04/04 10:23:48;;;;;;;10.82;6.60;;;;;;;7.32;41.67;94002.75;4917963;28;20051;-76
2022/04/04 10:26:15;;;;;;;12.32;6.80;;;;;;;7.73;40.70;93998.41;4925199;28;20055;-76
2022/04/04 10:28:44;;;;;;;9.77;6.45;;;;;;;8.12;40.94;93995.34;4922473;28;20067;-76
2022/04/04 10:31:15;;;;;;;12.23;7.90;;;;;;;7.45;40.78;94004.66;4913525;28;20059;-76
2022/04/04 10:33:41;;;;;;;13.13;7.20;;;;;;;6.84;41.65;93967.75;4922348;28;20729;-77
2022/04/04 10:36:15;;;;;;;9.90;6.25;;;;;;;6.76;41.34;94000.09;4928914;28;20479;-77
2022/04/04 10:38:51;;;;;;;13.70;6.50;;;;;;;7.26;41.74;93995.97;4910881;28;20036;-77
2022/04/04 10:41:19;;;;;;;10.13;6.25;;;;;;;6.75;42.01;93974.75;4940095;28;20122;-76
2022/04/04 10:43:47;;;;;;;9.63;6.68;;;;;;;6.74;43.24;93989.03;4927415;28;20039;-76
2022/04/04 10:46:18;;;;;;;11.52;7.78;;;;;;;6.81;43.24;93979.66;4924594;28;20106;-76
2022/04/04 10:48:51;;;;;;;12.32;6.45;;;;;;;7.05;42.22;93982.25;4938874;28;20173;-76
2022/04/04 10:51:25;;;;;;;13.90;6.07;;;;;;;7.18;41.71;93986.03;4925233;29;20529;-76
2022/04/04 10:53:53;;;;;;;8.23;5.72;;;;;;;7.80;42.63;93984.03;4925154;28;20044;-76
2022/04/04 10:56:23;;;;;;;13.15;5.72;;;;;;;7.79;41.25;93953.31;4931890;28;20582;-76
2022/04/04 10:58:53;;;;;;;12.38;6.35;;;;;;;8.17;41.56;93965.34;4922280;28;20114;-75
2022/04/04 11:01:24;;;;;;;8.20;5.45;;;;;;;8.04;40.24;93977.50;4929262;28;20044;-75
2022/04/04 11:03:54;;;;;;;9.43;6.15;;;;;;;7.85;40.19;93982.09;4927671;28;20027;-75
2022/04/04 11:09:26;;;;;;;12.07;7.35;;;;;;;8.21;39.48;93950.44;4931270;28;20071;-76
2022/04/04 11:12:01;;;;;;;9.95;6.28;;;;;;;8.42;38.27;93970.16;4929001;28;20067;-75
2022/04/04 11:14:43;;;;;;;9.07;6.00;;;;;;;8.18;39.45;93960.81;4931520;28;20058;-76
2022/04/04 11:17:46;;;;;;;9.23;6.00;;;;;;;8.11;40.70;93971.81;4945583;28;20050;-75
2022/04/04 11:20:33;;;;;;;9.43;5.43;;;;;;;7.70;40.42;93946.03;4933965;28;20176;-77
2022/04/04 11:23:11;;;;;;;7.60;6.18;;;;;;;8.56;41.40;93967.47;4928706;28;20044;-76
2022/04/04 11:25:48;;;;;;;8.95;6.57;;;;;;;8.70;39.07;93968.28;4915838;28;20232;-75
2022/04/04 11:28:15;;;;;;;11.95;6.32;;;;;;;8.20;39.73;93942.78;4929825;28;20063;-77
2022/04/04 11:30:41;;;;;;;8.95;6.30;;;;;;;8.74;40.06;93941.94;4933651;28;20029;-77
2022/04/04 11:33:11;;;;;;;12.93;6.63;;;;;;;9.16;39.69;93952.16;4934399;29;20122;-77
2022/04/04 11:35:36;;;;;;;13.40;6.35;;;;;;;9.07;37.96;93923.97;4933356;28;20040;-74
2022/04/04 11:38:12;;;;;;;7.38;5.60;;;;;;;9.32;37.79;93918.88;4941365;28;20385;-74
2022/04/04 11:40:42;;;;;;;;;;;;;;;9.89;37.69;93935.78;4933539;28;20058;-78
2022/04/04 11:43:10;;;;;;;8.13;5.40;;;;;;;8.68;37.98;93938.63;4930164;28;19980;-77